createdAt,value
2023-03-03T00:01:32.890Z,124.53
2023-03-03T00:04:00.046Z,128.13
2023-03-03T00:06:27.023Z,121.17
2023-03-03T00:08:53.836Z,124.97
2023-03-03T00:11:20.606Z,126.90
2023-03-03T00:13:50.475Z,120.77
2023-03-03T00:16:35.564Z,107.17
2023-03-03T00:19:02.392Z,115.60
2023-03-03T00:21:32.356Z,116.87
2023-03-03T00:24:14.233Z,99.03
2023-03-03T00:26:50.390Z,108.40
2023-03-03T00:29:35.960Z,117.00
2023-03-03T00:32:15.013Z,104.43
2023-03-03T00:34:43.624Z,100.30
2023-03-03T00:37:22.572Z,104.33
2023-03-03T00:39:49.389Z,117.77
2023-03-03T00:42:18.331Z,121.97
2023-03-03T00:44:48.733Z,109.00
2023-03-03T00:47:32.483Z,116.60
2023-03-03T00:50:27.664Z,111.93
2023-03-03T00:53:06.539Z,116.10
2023-03-03T00:55:34.614Z,105.63
2023-03-03T00:58:01.404Z,118.87
2023-03-03T01:00:28.687Z,174.03
2023-03-03T01:02:55.441Z,152.07
2023-03-03T01:05:22.486Z,119.47
2023-03-03T01:07:49.337Z,112.47
2023-03-03T01:10:16.235Z,104.47
2023-03-03T01:12:43.210Z,100.40
2023-03-03T01:15:12.564Z,104.60
2023-03-03T01:17:40.143Z,106.80
2023-03-03T01:20:14.172Z,107.80
2023-03-03T01:22:41.292Z,95.77
2023-03-03T01:25:09.106Z,105.13
2023-03-03T01:27:36.932Z,105.70
2023-03-03T01:30:07.012Z,97.33
2023-03-03T01:32:33.958Z,103.43
2023-03-03T01:35:00.845Z,102.20
2023-03-03T01:37:27.575Z,109.40
2023-03-03T01:39:55.357Z,103.97
2023-03-03T01:42:22.742Z,101.73
2023-03-03T01:45:13.577Z,104.47
2023-03-03T01:47:51.962Z,103.27
2023-03-03T01:50:45.744Z,108.60
2023-03-03T01:53:50.036Z,102.93
2023-03-03T01:56:16.995Z,103.73
2023-03-03T01:59:01.396Z,99.97
2023-03-03T02:01:29.908Z,103.23
2023-03-03T02:03:57.342Z,101.43
2023-03-03T02:06:28.637Z,97.30
2023-03-03T02:09:20.790Z,102.00
2023-03-03T02:11:51.169Z,102.50
2023-03-03T02:14:18.055Z,86.90
2023-03-03T02:16:45.210Z,100.70
2023-03-03T02:19:46.460Z,83.60
2023-03-03T02:22:18.044Z,94.80
2023-03-03T02:24:53.415Z,91.23
2023-03-03T02:27:20.420Z,102.53
2023-03-03T02:29:47.248Z,94.80
2023-03-03T02:32:14.097Z,90.67
2023-03-03T02:34:52.399Z,99.23
2023-03-03T02:37:20.373Z,88.43
2023-03-03T02:39:47.330Z,97.67
2023-03-03T02:42:20.016Z,95.80
2023-03-03T02:44:46.862Z,101.27
2023-03-03T02:47:14.125Z,97.83
2023-03-03T02:49:41.071Z,98.97
2023-03-03T02:52:12.480Z,99.60
2023-03-03T02:54:39.403Z,97.83
2023-03-03T02:57:06.612Z,89.70
2023-03-03T02:59:33.554Z,95.93
2023-03-03T03:02:00.496Z,83.47
2023-03-03T03:04:28.347Z,90.37
2023-03-03T03:06:56.228Z,90.13
2023-03-03T03:09:25.122Z,94.47
2023-03-03T03:11:52.375Z,92.47
2023-03-03T03:14:19.342Z,90.50
2023-03-03T03:16:46.099Z,84.63
2023-03-03T03:19:12.963Z,89.83
2023-03-03T03:21:39.731Z,86.93
2023-03-03T03:24:06.893Z,95.47
2023-03-03T03:26:33.689Z,88.80
2023-03-03T03:29:00.533Z,95.63
2023-03-03T03:31:27.603Z,94.17
2023-03-03T03:33:54.405Z,94.23
2023-03-03T03:36:21.291Z,91.20
2023-03-03T03:38:48.032Z,95.63
2023-03-03T03:41:14.834Z,98.57
2023-03-03T03:43:41.669Z,84.97
2023-03-03T03:46:08.702Z,95.70
2023-03-03T03:48:35.888Z,88.83
2023-03-03T03:51:03.265Z,89.60
2023-03-03T03:53:31.254Z,93.23
2023-03-03T03:55:58.015Z,86.87
2023-03-03T03:58:24.854Z,90.20
2023-03-03T04:00:51.653Z,87.33
2023-03-03T04:03:18.593Z,89.67
2023-03-03T04:05:45.663Z,93.30
2023-03-03T04:08:12.511Z,80.37
2023-03-03T04:10:39.369Z,85.43
2023-03-03T04:13:06.136Z,100.07
2023-03-03T04:15:32.953Z,81.57
2023-03-03T04:18:02.691Z,91.23
2023-03-03T04:20:29.528Z,93.03
2023-03-03T04:22:57.241Z,91.77
2023-03-03T04:25:24.424Z,84.87
2023-03-03T04:27:52.933Z,89.23
2023-03-03T04:30:20.043Z,88.70
2023-03-03T04:32:47.606Z,87.77
2023-03-03T04:35:14.351Z,96.60
2023-03-03T04:37:41.166Z,87.83
2023-03-03T04:40:09.380Z,83.57
2023-03-03T04:42:36.515Z,95.60
2023-03-03T04:45:04.511Z,90.73
2023-03-03T04:47:32.758Z,86.57
2023-03-03T04:49:59.890Z,96.07
2023-03-03T04:52:26.702Z,85.43
2023-03-03T04:54:53.457Z,94.07
2023-03-03T04:57:20.181Z,99.10
2023-03-03T04:59:47.390Z,91.97
2023-03-03T05:02:14.817Z,97.03
2023-03-03T05:04:41.655Z,92.63
2023-03-03T05:07:08.601Z,87.60
2023-03-03T05:09:35.665Z,96.00
2023-03-03T05:12:02.421Z,107.00
2023-03-03T05:14:29.161Z,103.33
2023-03-03T05:16:55.950Z,100.80
2023-03-03T05:19:22.820Z,105.30
2023-03-03T05:21:49.622Z,111.73
2023-03-03T05:24:16.347Z,97.30
2023-03-03T05:26:43.200Z,107.93
2023-03-03T05:29:10.268Z,101.23
2023-03-03T05:31:37.106Z,104.23
2023-03-03T05:34:04.292Z,91.60
2023-03-03T05:36:32.456Z,94.07
2023-03-03T05:38:59.362Z,106.73
2023-03-03T05:41:26.209Z,102.67
2023-03-03T05:43:52.979Z,101.27
2023-03-03T05:46:19.728Z,102.53
2023-03-03T05:48:47.208Z,94.30
2023-03-03T05:51:14.332Z,102.73
2023-03-03T05:53:41.270Z,96.43
2023-03-03T05:56:08.064Z,96.40
2023-03-03T05:58:34.845Z,100.17
2023-03-03T06:01:01.721Z,85.97
2023-03-03T06:03:28.659Z,79.13
2023-03-03T06:05:55.456Z,91.43
2023-03-03T06:08:22.264Z,80.70
2023-03-03T06:10:49.091Z,91.17
2023-03-03T06:13:16.334Z,88.67
2023-03-03T06:15:43.382Z,81.43
2023-03-03T06:18:10.343Z,84.73
2023-03-03T06:20:38.641Z,80.80
2023-03-03T06:23:05.979Z,70.13
2023-03-03T06:25:35.680Z,78.43
2023-03-03T06:28:03.231Z,88.30
2023-03-03T06:30:30.717Z,76.50
2023-03-03T06:32:57.613Z,86.80
2023-03-03T06:35:24.561Z,74.00
2023-03-03T06:37:51.751Z,89.17
2023-03-03T06:40:18.807Z,77.40
2023-03-03T06:42:45.956Z,77.73
2023-03-03T06:45:13.264Z,74.73
2023-03-03T06:47:40.153Z,74.63
2023-03-03T06:50:07.917Z,84.80
2023-03-03T06:52:34.827Z,69.23
2023-03-03T06:55:10.676Z,81.87
2023-03-03T06:57:37.916Z,77.00
2023-03-03T07:00:20.461Z,79.80
2023-03-03T07:02:53.870Z,88.70
2023-03-03T07:05:21.774Z,82.60
2023-03-03T07:07:48.557Z,76.00
2023-03-03T07:10:29.262Z,79.93
2023-03-03T07:13:02.901Z,83.27
2023-03-03T07:15:39.044Z,83.03
2023-03-03T07:18:32.687Z,83.37
2023-03-03T07:21:06.762Z,75.73
2023-03-03T07:23:42.858Z,74.90
2023-03-03T07:26:18.945Z,80.67
2023-03-03T07:28:55.792Z,78.07
2023-03-03T07:31:31.198Z,74.43
2023-03-03T07:34:00.552Z,74.83
2023-03-03T07:36:35.329Z,72.63
2023-03-03T07:39:23.582Z,73.40
2023-03-03T07:41:52.082Z,69.17
2023-03-03T07:44:24.812Z,72.27
2023-03-03T07:46:52.781Z,69.17
2023-03-03T07:49:23.450Z,75.40
2023-03-03T07:51:57.931Z,71.93
2023-03-03T07:54:50.745Z,62.17
2023-03-03T07:57:27.820Z,57.77
2023-03-03T08:00:02.788Z,69.70
2023-03-03T08:02:43.700Z,65.20
2023-03-03T08:05:30.422Z,58.37
2023-03-03T08:08:31.224Z,67.63
2023-03-03T08:11:03.154Z,54.23
2023-03-03T08:13:41.749Z,65.00
2023-03-03T08:16:11.621Z,65.23
2023-03-03T08:18:49.991Z,59.13
2023-03-03T08:21:22.459Z,54.17
2023-03-03T08:23:51.669Z,62.50
2023-03-03T08:26:20.129Z,57.77
2023-03-03T08:28:47.816Z,60.43
2023-03-03T08:31:22.535Z,68.23
2023-03-03T08:33:54.950Z,68.87
2023-03-03T08:36:21.819Z,58.93
2023-03-03T08:38:48.705Z,55.27
2023-03-03T08:41:15.735Z,49.13
2023-03-03T08:43:45.640Z,59.53
2023-03-03T08:46:12.674Z,43.30
2023-03-03T08:48:39.871Z,37.03
2023-03-03T08:51:06.776Z,48.93
2023-03-03T08:53:36.507Z,65.60
2023-03-03T08:56:05.060Z,62.93
2023-03-03T08:58:35.412Z,62.63
2023-03-03T09:01:02.652Z,55.13
2023-03-03T09:03:30.146Z,66.13
2023-03-03T09:05:57.121Z,36.90
2023-03-03T09:08:23.996Z,60.67
2023-03-03T09:10:50.859Z,55.27
2023-03-03T09:13:20.324Z,71.37
2023-03-03T09:15:48.990Z,57.13
2023-03-03T09:18:31.533Z,63.27
2023-03-03T09:20:58.648Z,64.80
2023-03-03T09:23:35.103Z,50.40
2023-03-03T09:26:30.697Z,43.57
2023-03-03T09:29:15.986Z,47.53
2023-03-03T09:31:45.775Z,36.37
2023-03-03T09:34:37.523Z,33.93
2023-03-03T09:37:23.179Z,35.57
2023-03-03T09:39:59.275Z,47.53
2023-03-03T09:43:07.489Z,52.47
2023-03-03T09:45:37.322Z,46.57
2023-03-03T09:48:20.400Z,50.87
2023-03-03T09:51:18.502Z,51.33
2023-03-03T09:54:03.521Z,55.00
2023-03-03T09:56:39.911Z,50.43
2023-03-03T09:59:34.153Z,49.00
2023-03-03T10:02:28.472Z,39.43
2023-03-03T10:05:35.550Z,44.50
2023-03-03T10:08:27.103Z,39.47
2023-03-03T10:11:13.513Z,26.03
2023-03-03T10:14:00.245Z,44.60
2023-03-03T10:17:09.788Z,52.90
2023-03-03T10:19:46.761Z,51.17
2023-03-03T10:22:41.409Z,40.50
2023-03-03T10:25:26.821Z,48.80
2023-03-03T10:27:59.991Z,42.40
2023-03-03T10:30:42.694Z,42.43
2023-03-03T10:33:23.054Z,43.70
2023-03-03T10:36:07.614Z,50.27
2023-03-03T10:38:49.532Z,53.77
2023-03-03T10:41:53.587Z,49.30
2023-03-03T10:44:45.502Z,51.97
2023-03-03T10:47:40.660Z,54.60
2023-03-03T10:50:22.847Z,40.40
2023-03-03T10:53:17.073Z,48.90
2023-03-03T10:56:09.703Z,55.70
2023-03-03T10:58:52.686Z,44.87
2023-03-03T11:01:45.189Z,33.43
2023-03-03T11:04:41.442Z,67.87
2023-03-03T11:07:17.268Z,37.93
2023-03-03T11:10:01.856Z,34.97
2023-03-03T11:12:58.703Z,49.87
2023-03-03T11:15:46.939Z,45.80
2023-03-03T11:18:33.961Z,43.93
2023-03-03T11:21:22.555Z,36.07
2023-03-03T11:23:53.398Z,44.23
2023-03-03T11:26:49.426Z,34.63
2023-03-03T11:29:36.759Z,32.07
2023-03-03T11:32:35.746Z,36.13
2023-03-03T11:35:27.293Z,26.97
2023-03-03T11:38:06.272Z,28.53
2023-03-03T11:40:50.484Z,37.10
2023-03-03T11:43:37.454Z,52.47
2023-03-03T11:46:13.147Z,42.57
2023-03-03T11:49:12.987Z,38.50
2023-03-03T11:52:04.526Z,34.77
2023-03-03T11:54:48.361Z,28.33
2023-03-03T11:57:15.242Z,21.73
2023-03-03T11:59:55.009Z,41.77
2023-03-03T12:02:30.530Z,32.10
2023-03-03T12:05:25.190Z,34.93
2023-03-03T12:08:03.661Z,34.37
2023-03-03T12:10:36.292Z,25.37
2023-03-03T12:13:20.316Z,27.17
2023-03-03T12:15:58.805Z,24.00
2023-03-03T12:18:45.496Z,23.43
2023-03-03T12:21:33.494Z,30.87
2023-03-03T12:24:27.055Z,35.60
2023-03-03T12:27:08.953Z,28.90
2023-03-03T12:30:10.793Z,22.60
2023-03-03T12:32:43.596Z,29.57
2023-03-03T12:35:28.789Z,23.13
2023-03-03T12:38:18.139Z,33.20
2023-03-03T12:41:09.990Z,32.10
2023-03-03T12:43:55.975Z,26.77
2023-03-03T12:46:44.308Z,37.37
2023-03-03T12:49:11.391Z,28.90
2023-03-03T12:51:50.466Z,37.87
2023-03-03T12:54:40.895Z,28.80
2023-03-03T12:57:24.093Z,31.63
2023-03-03T12:59:59.418Z,30.03
2023-03-03T13:02:35.086Z,31.37
2023-03-03T13:05:11.744Z,36.80
2023-03-03T13:08:15.726Z,48.27
2023-03-03T13:10:46.618Z,35.40
2023-03-03T13:13:27.741Z,49.67
2023-03-03T13:16:06.962Z,41.47
2023-03-03T13:18:53.598Z,21.60
2023-03-03T13:21:47.712Z,23.90
2023-03-03T13:24:26.885Z,23.33
2023-03-03T13:27:42.490Z,22.53
2023-03-03T13:30:09.605Z,38.63
2023-03-03T13:32:46.888Z,34.30
2023-03-03T13:35:35.559Z,29.63
2023-03-03T13:38:04.064Z,34.10
2023-03-03T13:40:42.890Z,25.93
2023-03-03T13:43:19.848Z,30.60
2023-03-03T13:45:58.675Z,25.77
2023-03-03T13:48:37.531Z,28.97
2023-03-03T13:51:43.141Z,25.87
2023-03-03T13:54:40.326Z,35.63
2023-03-03T13:57:26.206Z,16.40
2023-03-03T14:00:02.378Z,27.77
2023-03-03T14:02:59.223Z,30.50
2023-03-03T14:05:28.852Z,19.50
2023-03-03T14:08:02.820Z,41.70
2023-03-03T14:10:41.884Z,27.80
2023-03-03T14:13:12.242Z,22.60
2023-03-03T14:16:05.458Z,30.90
2023-03-03T14:18:44.644Z,27.23
2023-03-03T14:21:18.095Z,20.77
2023-03-03T14:24:11.494Z,20.90
2023-03-03T14:26:56.434Z,17.77
2023-03-03T14:29:26.176Z,22.27
2023-03-03T14:31:58.267Z,19.20
2023-03-03T14:35:02.488Z,15.73
2023-03-03T14:37:43.543Z,20.77
2023-03-03T14:40:16.429Z,32.17
2023-03-03T14:42:53.546Z,22.53
2023-03-03T14:45:39.790Z,24.73
2023-03-03T14:48:17.420Z,20.90
2023-03-03T14:50:53.829Z,28.97
2023-03-03T14:53:34.444Z,18.37
2023-03-03T14:56:25.178Z,20.53
2023-03-03T14:59:20.896Z,28.23
2023-03-03T15:01:47.848Z,30.13
2023-03-03T15:04:14.625Z,30.80
2023-03-03T15:06:47.831Z,24.43
2023-03-03T15:09:37.504Z,30.30
2023-03-03T15:12:19.304Z,17.50
2023-03-03T15:14:48.987Z,32.27
2023-03-03T15:17:39.839Z,23.90
2023-03-03T15:20:44.332Z,25.27
2023-03-03T15:23:20.124Z,22.03
2023-03-03T15:26:05.741Z,24.90
2023-03-03T15:29:14.771Z,27.00
2023-03-03T15:32:23.499Z,21.93
2023-03-03T15:35:13.533Z,30.30
2023-03-03T15:37:40.317Z,32.60
2023-03-03T15:40:17.470Z,29.67
2023-03-03T15:43:24.549Z,24.50
2023-03-03T15:46:16.144Z,23.93
2023-03-03T15:49:04.073Z,18.70
2023-03-03T15:52:03.191Z,19.60
2023-03-03T15:54:49.117Z,29.50
2023-03-03T15:57:45.170Z,57.00
2023-03-03T16:00:37.104Z,22.57
2023-03-03T16:03:35.507Z,30.67
2023-03-03T16:06:28.803Z,29.10
2023-03-03T16:09:07.472Z,31.30
2023-03-03T16:11:53.016Z,36.73
2023-03-03T16:14:20.047Z,29.10
2023-03-03T16:17:04.131Z,37.90
2023-03-03T16:19:45.553Z,32.87
2023-03-03T16:22:54.829Z,32.23
2023-03-03T16:25:59.724Z,29.93
2023-03-03T16:28:58.151Z,34.27
2023-03-03T16:31:36.358Z,28.97
2023-03-03T16:34:12.285Z,30.60
2023-03-03T16:37:16.258Z,34.93
2023-03-03T16:39:55.353Z,32.20
2023-03-03T16:42:39.865Z,31.27
2023-03-03T16:45:24.453Z,34.40
2023-03-03T16:48:08.269Z,20.07
2023-03-03T16:51:12.565Z,29.57
2023-03-03T16:53:54.238Z,33.43
2023-03-03T16:56:32.186Z,32.53
2023-03-03T16:59:01.850Z,54.93
2023-03-03T17:01:56.295Z,39.47
2023-03-03T17:05:05.138Z,37.47
2023-03-03T17:07:50.748Z,31.47
2023-03-03T17:10:28.448Z,29.10
2023-03-03T17:12:57.987Z,40.20
2023-03-03T17:15:38.538Z,34.00
2023-03-03T17:18:12.647Z,34.33
2023-03-03T17:20:58.561Z,34.87
2023-03-03T17:24:03.879Z,30.73
2023-03-03T17:26:30.741Z,23.50
2023-03-03T17:29:19.124Z,28.23
2023-03-03T17:32:08.700Z,30.83
2023-03-03T17:34:48.063Z,26.80
2023-03-03T17:37:32.402Z,28.17
2023-03-03T17:40:21.973Z,36.33
2023-03-03T17:43:28.935Z,29.73
2023-03-03T17:46:02.043Z,35.07
2023-03-03T17:48:50.093Z,34.27
2023-03-03T17:51:37.930Z,31.83
2023-03-03T17:54:19.072Z,37.77
2023-03-03T17:57:10.644Z,41.07
2023-03-03T18:00:03.009Z,37.43
2023-03-03T18:02:41.913Z,38.87
2023-03-03T18:05:20.527Z,35.70
2023-03-03T18:07:52.329Z,23.90
2023-03-03T18:10:43.961Z,38.57
2023-03-03T18:13:38.730Z,43.03
2023-03-03T18:16:24.105Z,33.20
2023-03-03T18:19:11.661Z,43.97
2023-03-03T18:21:57.278Z,42.87
2023-03-03T18:24:38.270Z,37.90
2023-03-03T18:27:23.706Z,38.70
2023-03-03T18:30:17.716Z,42.27
2023-03-03T18:32:56.584Z,44.13
2023-03-03T18:35:44.136Z,41.77
2023-03-03T18:38:16.944Z,37.50
2023-03-03T18:41:00.747Z,35.73
2023-03-03T18:43:45.954Z,32.50
2023-03-03T18:46:35.645Z,38.27
2023-03-03T18:49:10.698Z,30.33
2023-03-03T18:51:40.996Z,33.83
2023-03-03T18:54:14.298Z,39.80
2023-03-03T18:56:51.763Z,40.67
2023-03-03T18:59:30.698Z,37.10
2023-03-03T19:02:16.102Z,38.93
2023-03-03T19:04:56.584Z,39.80
2023-03-03T19:07:29.938Z,43.97
2023-03-03T19:09:58.276Z,40.53
2023-03-03T19:12:53.214Z,43.87
2023-03-03T19:15:33.705Z,42.30
2023-03-03T19:18:13.350Z,47.27
2023-03-03T19:20:44.177Z,41.77
2023-03-03T19:23:31.510Z,38.43
2023-03-03T19:26:20.137Z,46.83
2023-03-03T19:29:13.255Z,44.07
2023-03-03T19:32:05.016Z,46.30
2023-03-03T19:34:43.300Z,42.93
2023-03-03T19:37:43.730Z,40.60
2023-03-03T19:40:38.992Z,40.93
2023-03-03T19:43:08.760Z,45.80
2023-03-03T19:46:08.861Z,44.27
2023-03-03T19:48:54.410Z,41.37
2023-03-03T19:51:55.713Z,42.83
2023-03-03T19:54:39.148Z,39.67
2023-03-03T19:57:19.417Z,38.77
2023-03-03T19:59:52.180Z,44.37
2023-03-03T20:02:55.337Z,37.07
2023-03-03T20:05:47.098Z,41.70
2023-03-03T20:08:42.929Z,42.57
2023-03-03T20:11:13.017Z,38.10
2023-03-03T20:13:45.445Z,40.47
2023-03-03T20:16:23.842Z,35.60
2023-03-03T20:19:19.975Z,41.27
2023-03-03T20:22:06.032Z,42.70
2023-03-03T20:24:51.521Z,42.97
2023-03-03T20:27:36.093Z,42.90
2023-03-03T20:30:15.660Z,45.17
2023-03-03T20:33:23.511Z,46.83
2023-03-03T20:36:23.350Z,44.73
2023-03-03T20:39:04.733Z,51.57
2023-03-03T20:41:50.175Z,45.00
2023-03-03T20:45:01.847Z,51.73
2023-03-03T20:47:56.904Z,43.17
2023-03-03T20:50:23.617Z,51.63
2023-03-03T20:53:02.929Z,55.17
2023-03-03T20:55:43.937Z,51.80
2023-03-03T20:58:50.537Z,47.00
2023-03-03T21:01:31.342Z,39.60
2023-03-03T21:04:21.971Z,47.50
2023-03-03T21:06:49.646Z,38.17
2023-03-03T21:09:39.010Z,44.10
2023-03-03T21:12:29.889Z,45.30
2023-03-03T21:15:05.509Z,37.57
2023-03-03T21:17:32.463Z,45.23
2023-03-03T21:20:33.986Z,43.77
2023-03-03T21:23:03.002Z,41.77
2023-03-03T21:25:40.413Z,44.47
2023-03-03T21:28:29.716Z,46.30
2023-03-03T21:31:05.531Z,42.87
2023-03-03T21:33:54.368Z,40.47
2023-03-03T21:36:36.010Z,43.60
2023-03-03T21:39:28.985Z,48.03
2023-03-03T21:42:09.092Z,42.67
2023-03-03T21:44:54.838Z,43.33
2023-03-03T21:47:27.777Z,48.60
2023-03-03T21:49:54.981Z,45.03
2023-03-03T21:52:22.909Z,43.37
2023-03-03T21:54:51.372Z,47.63
2023-03-03T21:57:18.949Z,41.90
2023-03-03T21:59:46.168Z,46.83
2023-03-03T22:02:13.466Z,46.23
2023-03-03T22:04:41.236Z,40.40
2023-03-03T22:07:11.339Z,43.77
2023-03-03T22:09:38.536Z,40.27
2023-03-03T22:12:06.895Z,41.50
2023-03-03T22:14:34.234Z,34.17
2023-03-03T22:17:01.464Z,33.57
2023-03-03T22:19:29.575Z,32.70
2023-03-03T22:21:56.464Z,34.03
2023-03-03T22:24:23.369Z,35.67
2023-03-03T22:26:50.457Z,34.33
2023-03-03T22:29:22.696Z,36.17
2023-03-03T22:31:50.424Z,39.33
2023-03-03T22:34:19.990Z,31.27
2023-03-03T22:36:46.877Z,42.60
2023-03-03T22:39:16.668Z,39.90
2023-03-03T22:41:44.694Z,32.43
2023-03-03T22:44:12.510Z,33.23
2023-03-03T22:46:39.724Z,35.90
2023-03-03T22:49:12.582Z,30.97
2023-03-03T22:51:39.544Z,29.03
2023-03-03T22:54:06.762Z,27.87
2023-03-03T22:56:33.771Z,29.13
2023-03-03T22:59:00.776Z,24.97
2023-03-03T23:01:27.981Z,29.53
2023-03-03T23:03:55.175Z,26.17
2023-03-03T23:06:24.003Z,31.87
2023-03-03T23:08:50.764Z,35.80
2023-03-03T23:11:17.614Z,31.70
2023-03-03T23:13:44.621Z,29.83
2023-03-03T23:16:12.718Z,32.87
2023-03-03T23:18:39.811Z,30.70
2023-03-03T23:21:06.563Z,31.97
2023-03-03T23:23:33.694Z,29.83
2023-03-03T23:26:01.051Z,34.63
2023-03-03T23:28:27.782Z,28.63
2023-03-03T23:30:54.617Z,22.30
2023-03-03T23:33:21.555Z,29.77
2023-03-03T23:35:49.972Z,31.73
2023-03-03T23:38:17.949Z,30.40
2023-03-03T23:40:48.953Z,29.47
2023-03-03T23:43:15.813Z,33.23
2023-03-03T23:45:42.839Z,29.60
2023-03-03T23:48:10.066Z,30.97
2023-03-03T23:50:38.029Z,33.77
2023-03-03T23:53:08.057Z,31.30
2023-03-03T23:55:36.281Z,32.03
2023-03-03T23:58:04.092Z,35.73
